sensor_id;sensor_type;location;lat;lon;timestamp;temperature;humidity
64501;DHT22;50874;24.150;-110.320;2024-01-10T00:02:10;18.50;99.90
64501;DHT22;50874;24.150;-110.320;2024-01-10T00:04:36;18.50;99.90
64501;DHT22;50874;24.150;-110.320;2024-01-10T00:07:03;18.30;99.90
64501;DHT22;50874;24.150;-110.320;2024-01-10T00:09:30;18.30;99.90
64501;DHT22;50874;24.150;-110.320;2024-01-10T00:11:57;18.20;99.90
64501;DHT22;50874;24.150;-110.320;2024-01-10T00:14:24;18.30;99.90
64501;DHT22;50874;24.150;-110.320;2024-01-10T00:16:50;18.30;99.90
64501;DHT22;50874;24.150;-110.320;2024-01-10T00:19:17;18.20;99.90
64501;DHT22;50874;24.150;-110.320;2024-01-10T00:21:43;18.10;99.90
64501;DHT22;50874;24.150;-110.320;2024-01-10T00:24:10;17.90;99.90
64501;DHT22;50874;24.150;-110.320;2024-01-10T00:26:36;17.90;99.90
64501;DHT22;50874;24.150;-110.320;2024-01-10T00:29:03;17.80;99.90
64501;DHT22;50874;24.150;-110.320;2024-01-10T00:31:29;17.80;99.90
64501;DHT22;50874;24.150;-110.320;2024-01-10T00:33:56;17.80;99.90
64501;DHT22;50874;24.150;-110.320;2024-01-10T00:36:22;17.70;99.90
64501;DHT22;50874;24.150;-110.320;2024-01-10T00:38:48;17.60;99.90
64501;DHT22;50874;24.150;-110.320;2024-01-10T00:41:15;17.60;99.90
64501;DHT22;50874;24.150;-110.320;2024-01-10T00:43:41;17.60;99.90
64501;DHT22;50874;24.150;-110.320;2024-01-10T00:46:08;17.60;99.90
64501;DHT22;50874;24.150;-110.320;2024-01-10T00:48:34;17.60;99.90
64501;DHT22;50874;24.150;-110.320;2024-01-10T00:51:01;17.50;99.90
64501;DHT22;50874;24.150;-110.320;2024-01-10T00:53:27;17.50;99.90
64501;DHT22;50874;24.150;-110.320;2024-01-10T00:55:54;17.50;99.90
64501;DHT22;50874;24.150;-110.320;2024-01-10T00:58:20;17.30;99.90
64501;DHT22;50874;24.150;-110.320;2024-01-10T01:00:47;17.30;99.90
64501;DHT22;50874;24.150;-110.320;2024-01-10T01:03:13;17.20;99.90
64501;DHT22;50874;24.150;-110.320;2024-01-10T01:05:40;17.30;99.90
64501;DHT22;50874;24.150;-110.320;2024-01-10T01:08:07;17.20;99.90
64501;DHT22;50874;24.150;-110.320;2024-01-10T01:10:34;17.20;99.90
64501;DHT22;50874;24.150;-110.320;2024-01-10T01:13:01;17.20;99.90
64501;DHT22;50874;24.150;-110.320;2024-01-10T01:15:27;17.10;99.90
64501;DHT22;50874;24.150;-110.320;2024-01-10T01:17:53;17.10;99.90
64501;DHT22;50874;24.150;-110.320;2024-01-10T01:20:20;17.10;99.90
64501;DHT22;50874;24.150;-110.320;2024-01-10T01:22:46;17.00;99.90
64501;DHT22;50874;24.150;-110.320;2024-01-10T01:25:13;17.00;99.90
64501;DHT22;50874;24.150;-110.320;2024-01-10T01:27:39;17.00;99.90
64501;DHT22;50874;24.150;-110.320;2024-01-10T01:30:06;17.00;99.90
64501;DHT22;50874;24.150;-110.320;2024-01-10T01:32:33;17.00;99.90
64501;DHT22;50874;24.150;-110.320;2024-01-10T01:34:59;17.00;99.90
64501;DHT22;50874;24.150;-110.320;2024-01-10T01:37:26;16.90;99.90
64501;DHT22;50874;24.150;-110.320;2024-01-10T01:39:52;16.90;99.90
64501;DHT22;50874;24.150;-110.320;2024-01-10T01:42:19;16.80;99.90
64501;DHT22;50874;24.150;-110.320;2024-01-10T01:44:45;16.80;99.90
64501;DHT22;50874;24.150;-110.320;2024-01-10T01:47:12;16.80;99.90
64501;DHT22;50874;24.150;-110.320;2024-01-10T01:49:38;16.80;99.90
64501;DHT22;50874;24.150;-110.320;2024-01-10T01:52:05;16.80;99.90
64501;DHT22;50874;24.150;-110.320;2024-01-10T01:54:34;16.80;99.90
64501;DHT22;50874;24.150;-110.320;2024-01-10T01:57:00;16.70;99.90
64501;DHT22;50874;24.150;-110.320;2024-01-10T01:59:27;16.70;99.90
64501;DHT22;50874;24.150;-110.320;2024-01-10T02:01:55;16.70;99.90
64501;DHT22;50874;24.150;-110.320;2024-01-10T02:04:25;16.70;99.90
64501;DHT22;50874;24.150;-110.320;2024-01-10T02:06:53;16.70;99.90
64501;DHT22;50874;24.150;-110.320;2024-01-10T02:09:19;16.70;99.90
64501;DHT22;50874;24.150;-110.320;2024-01-10T02:11:46;16.60;99.90
64501;DHT22;50874;24.150;-110.320;2024-01-10T02:14:12;16.60;99.90
64501;DHT22;50874;24.150;-110.320;2024-01-10T02:16:39;16.70;99.90
64501;DHT22;50874;24.150;-110.320;2024-01-10T02:19:22;16.60;99.90
64501;DHT22;50874;24.150;-110.320;2024-01-10T02:21:49;16.70;99.90
64501;DHT22;50874;24.150;-110.320;2024-01-10T02:24:16;16.60;99.90
64501;DHT22;50874;24.150;-110.320;2024-01-10T02:26:42;16.60;99.90
64501;DHT22;50874;24.150;-110.320;2024-01-10T02:29:09;16.60;99.90
64501;DHT22;50874;24.150;-110.320;2024-01-10T02:31:36;16.60;99.90
64501;DHT22;50874;24.150;-110.320;2024-01-10T02:34:02;16.60;99.90
64501;DHT22;50874;24.150;-110.320;2024-01-10T02:36:29;16.50;99.90
64501;DHT22;50874;24.150;-110.320;2024-01-10T02:38:55;16.60;99.90
64501;DHT22;50874;24.150;-110.320;2024-01-10T02:41:22;16.60;99.90
64501;DHT22;50874;24.150;-110.320;2024-01-10T02:43:48;16.60;99.90
64501;DHT22;50874;24.150;-110.320;2024-01-10T02:46:15;16.50;99.90
64501;DHT22;50874;24.150;-110.320;2024-01-10T02:48:41;16.50;99.90
64501;DHT22;50874;24.150;-110.320;2024-01-10T02:51:08;16.50;99.90
64501;DHT22;50874;24.150;-110.320;2024-01-10T02:53:34;16.50;99.90
64501;DHT22;50874;24.150;-110.320;2024-01-10T02:56:01;16.50;99.90
64501;DHT22;50874;24.150;-110.320;2024-01-10T02:58:27;16.50;99.90
64501;DHT22;50874;24.150;-110.320;2024-01-10T03:00:55;16.50;99.90
64501;DHT22;50874;24.150;-110.320;2024-01-10T03:03:23;16.50;99.90
64501;DHT22;50874;24.150;-110.320;2024-01-10T03:05:50;16.40;99.90
64501;DHT22;50874;24.150;-110.320;2024-01-10T03:08:16;16.40;99.90
64501;DHT22;50874;24.150;-110.320;2024-01-10T03:10:43;16.40;99.90
64501;DHT22;50874;24.150;-110.320;2024-01-10T03:13:09;16.40;99.90
64501;DHT22;50874;24.150;-110.320;2024-01-10T03:15:36;16.40;99.90
64501;DHT22;50874;24.150;-110.320;2024-01-10T03:18:02;16.40;99.90
64501;DHT22;50874;24.150;-110.320;2024-01-10T03:20:29;16.40;99.90
64501;DHT22;50874;24.150;-110.320;2024-01-10T03:22:55;16.30;99.90
64501;DHT22;50874;24.150;-110.320;2024-01-10T03:25:21;16.30;99.90
64501;DHT22;50874;24.150;-110.320;2024-01-10T03:27:48;16.30;99.90
64501;DHT22;50874;24.150;-110.320;2024-01-10T03:30:15;16.40;99.90
64501;DHT22;50874;24.150;-110.320;2024-01-10T03:32:44;16.40;99.90
64501;DHT22;50874;24.150;-110.320;2024-01-10T03:35:10;16.40;99.90
64501;DHT22;50874;24.150;-110.320;2024-01-10T03:37:37;16.40;99.90
64501;DHT22;50874;24.150;-110.320;2024-01-10T03:40:03;16.40;99.90
64501;DHT22;50874;24.150;-110.320;2024-01-10T03:42:30;16.40;99.90
64501;DHT22;50874;24.150;-110.320;2024-01-10T03:44:56;16.40;99.90
64501;DHT22;50874;24.150;-110.320;2024-01-10T03:47:23;16.40;99.90
64501;DHT22;50874;24.150;-110.320;2024-01-10T03:49:49;16.40;99.90
64501;DHT22;50874;24.150;-110.320;2024-01-10T03:52:16;16.40;99.90
64501;DHT22;50874;24.150;-110.320;2024-01-10T03:54:42;16.30;99.90
64501;DHT22;50874;24.150;-110.320;2024-01-10T03:57:08;16.30;99.90
64501;DHT22;50874;24.150;-110.320;2024-01-10T03:59:35;16.40;99.90
64501;DHT22;50874;24.150;-110.320;2024-01-10T04:02:01;16.40;99.90
64501;DHT22;50874;24.150;-110.320;2024-01-10T04:04:28;16.30;99.90
64501;DHT22;50874;24.150;-110.320;2024-01-10T04:06:54;16.30;99.90
64501;DHT22;50874;24.150;-110.320;2024-01-10T04:09:21;16.30;99.90
64501;DHT22;50874;24.150;-110.320;2024-01-10T04:11:47;16.20;99.90
64501;DHT22;50874;24.150;-110.320;2024-01-10T04:14:14;16.20;99.90
64501;DHT22;50874;24.150;-110.320;2024-01-10T04:16:41;16.10;99.90
64501;DHT22;50874;24.150;-110.320;2024-01-10T04:19:07;16.10;99.90
64501;DHT22;50874;24.150;-110.320;2024-01-10T04:21:34;16.20;99.90
64501;DHT22;50874;24.150;-110.320;2024-01-10T04:24:01;16.20;99.90
64501;DHT22;50874;24.150;-110.320;2024-01-10T04:26:27;16.30;99.90
64501;DHT22;50874;24.150;-110.320;2024-01-10T04:28:54;16.30;99.90
64501;DHT22;50874;24.150;-110.320;2024-01-10T04:31:20;16.30;99.90
64501;DHT22;50874;24.150;-110.320;2024-01-10T04:33:47;16.20;99.90
64501;DHT22;50874;24.150;-110.320;2024-01-10T04:36:13;16.10;99.90
64501;DHT22;50874;24.150;-110.320;2024-01-10T04:38:40;16.10;99.90
64501;DHT22;50874;24.150;-110.320;2024-01-10T04:41:06;16.10;99.90
64501;DHT22;50874;24.150;-110.320;2024-01-10T04:43:33;16.00;99.90
64501;DHT22;50874;24.150;-110.320;2024-01-10T04:45:59;16.00;99.90
64501;DHT22;50874;24.150;-110.320;2024-01-10T04:48:25;16.00;99.90
64501;DHT22;50874;24.150;-110.320;2024-01-10T04:50:52;15.90;99.90
64501;DHT22;50874;24.150;-110.320;2024-01-10T04:53:18;15.90;99.90
64501;DHT22;50874;24.150;-110.320;2024-01-10T04:55:45;15.90;99.90
64501;DHT22;50874;24.150;-110.320;2024-01-10T04:58:11;15.90;99.90
64501;DHT22;50874;24.150;-110.320;2024-01-10T05:00:38;15.80;99.90
64501;DHT22;50874;24.150;-110.320;2024-01-10T05:03:05;15.80;99.90
64501;DHT22;50874;24.150;-110.320;2024-01-10T05:05:32;15.80;99.90
64501;DHT22;50874;24.150;-110.320;2024-01-10T05:07:58;15.80;99.90
64501;DHT22;50874;24.150;-110.320;2024-01-10T05:10:25;15.80;99.90
64501;DHT22;50874;24.150;-110.320;2024-01-10T05:12:51;15.80;99.90
64501;DHT22;50874;24.150;-110.320;2024-01-10T05:15:18;15.90;99.90
64501;DHT22;50874;24.150;-110.320;2024-01-10T05:17:45;15.80;99.90
64501;DHT22;50874;24.150;-110.320;2024-01-10T05:20:11;15.80;99.90
64501;DHT22;50874;24.150;-110.320;2024-01-10T05:22:40;15.70;99.90
64501;DHT22;50874;24.150;-110.320;2024-01-10T05:25:07;15.80;99.90
64501;DHT22;50874;24.150;-110.320;2024-01-10T05:27:33;15.70;99.90
64501;DHT22;50874;24.150;-110.320;2024-01-10T05:30:00;15.70;99.90
64501;DHT22;50874;24.150;-110.320;2024-01-10T05:32:26;15.70;99.90
64501;DHT22;50874;24.150;-110.320;2024-01-10T05:34:54;15.70;99.90
64501;DHT22;50874;24.150;-110.320;2024-01-10T05:37:20;15.70;99.90
64501;DHT22;50874;24.150;-110.320;2024-01-10T05:39:48;15.60;99.90
64501;DHT22;50874;24.150;-110.320;2024-01-10T05:42:15;15.50;99.90
64501;DHT22;50874;24.150;-110.320;2024-01-10T05:44:41;15.50;99.90
64501;DHT22;50874;24.150;-110.320;2024-01-10T05:47:08;15.60;99.90
64501;DHT22;50874;24.150;-110.320;2024-01-10T05:49:35;15.50;99.90
64501;DHT22;50874;24.150;-110.320;2024-01-10T05:52:01;15.40;99.90
64501;DHT22;50874;24.150;-110.320;2024-01-10T05:54:28;15.40;99.90
64501;DHT22;50874;24.150;-110.320;2024-01-10T05:56:54;15.40;99.90
64501;DHT22;50874;24.150;-110.320;2024-01-10T05:59:21;15.30;99.90
64501;DHT22;50874;24.150;-110.320;2024-01-10T06:01:47;15.30;99.90
64501;DHT22;50874;24.150;-110.320;2024-01-10T06:04:14;15.20;99.90
64501;DHT22;50874;24.150;-110.320;2024-01-10T06:06:40;15.20;99.90
64501;DHT22;50874;24.150;-110.320;2024-01-10T06:09:07;15.20;99.90
64501;DHT22;50874;24.150;-110.320;2024-01-10T06:11:43;15.10;99.90
64501;DHT22;50874;24.150;-110.320;2024-01-10T06:14:09;15.10;99.90
64501;DHT22;50874;24.150;-110.320;2024-01-10T06:16:36;15.00;99.90
64501;DHT22;50874;24.150;-110.320;2024-01-10T06:19:02;14.90;99.90
64501;DHT22;50874;24.150;-110.320;2024-01-10T06:21:29;14.80;99.90
64501;DHT22;50874;24.150;-110.320;2024-01-10T06:23:55;14.70;99.90
64501;DHT22;50874;24.150;-110.320;2024-01-10T06:26:22;14.70;99.90
64501;DHT22;50874;24.150;-110.320;2024-01-10T06:28:49;14.60;99.90
64501;DHT22;50874;24.150;-110.320;2024-01-10T06:31:15;14.50;99.90
64501;DHT22;50874;24.150;-110.320;2024-01-10T06:33:41;14.40;99.90
64501;DHT22;50874;24.150;-110.320;2024-01-10T06:36:08;14.20;99.90
64501;DHT22;50874;24.150;-110.320;2024-01-10T06:38:34;14.00;99.90
64501;DHT22;50874;24.150;-110.320;2024-01-10T06:41:01;14.00;99.90
64501;DHT22;50874;24.150;-110.320;2024-01-10T06:43:33;13.80;99.90
64501;DHT22;50874;24.150;-110.320;2024-01-10T06:46:00;13.80;99.90
64501;DHT22;50874;24.150;-110.320;2024-01-10T06:48:29;13.70;99.90
64501;DHT22;50874;24.150;-110.320;2024-01-10T06:50:55;13.60;99.90
64501;DHT22;50874;24.150;-110.320;2024-01-10T06:53:22;13.60;99.90
64501;DHT22;50874;24.150;-110.320;2024-01-10T06:55:48;13.60;99.90
64501;DHT22;50874;24.150;-110.320;2024-01-10T06:58:15;13.50;99.90
64501;DHT22;50874;24.150;-110.320;2024-01-10T07:00:41;13.50;99.90
64501;DHT22;50874;24.150;-110.320;2024-01-10T07:03:08;13.40;99.90
64501;DHT22;50874;24.150;-110.320;2024-01-10T07:05:34;13.40;99.90
64501;DHT22;50874;24.150;-110.320;2024-01-10T07:08:03;13.40;99.90
64501;DHT22;50874;24.150;-110.320;2024-01-10T07:10:30;13.50;99.90
64501;DHT22;50874;24.150;-110.320;2024-01-10T07:12:56;13.50;99.90
64501;DHT22;50874;24.150;-110.320;2024-01-10T07:15:23;13.40;99.90
64501;DHT22;50874;24.150;-110.320;2024-01-10T07:17:49;13.50;99.90
64501;DHT22;50874;24.150;-110.320;2024-01-10T07:20:16;13.50;99.90
64501;DHT22;50874;24.150;-110.320;2024-01-10T07:22:42;13.40;99.90
64501;DHT22;50874;24.150;-110.320;2024-01-10T07:25:10;13.40;99.90
64501;DHT22;50874;24.150;-110.320;2024-01-10T07:27:43;13.40;99.90
64501;DHT22;50874;24.150;-110.320;2024-01-10T07:30:10;13.40;99.90
64501;DHT22;50874;24.150;-110.320;2024-01-10T07:32:43;13.40;99.90
64501;DHT22;50874;24.150;-110.320;2024-01-10T07:35:11;13.40;99.90
64501;DHT22;50874;24.150;-110.320;2024-01-10T07:37:38;13.30;99.90
64501;DHT22;50874;24.150;-110.320;2024-01-10T07:40:06;13.20;99.90
64501;DHT22;50874;24.150;-110.320;2024-01-10T07:42:34;13.30;99.90
64501;DHT22;50874;24.150;-110.320;2024-01-10T07:45:01;13.30;99.90
64501;DHT22;50874;24.150;-110.320;2024-01-10T07:47:31;13.20;99.90
64501;DHT22;50874;24.150;-110.320;2024-01-10T07:49:58;13.20;99.90
64501;DHT22;50874;24.150;-110.320;2024-01-10T07:52:24;13.20;99.90
64501;DHT22;50874;24.150;-110.320;2024-01-10T07:54:50;13.20;99.90
64501;DHT22;50874;24.150;-110.320;2024-01-10T07:57:17;13.20;99.90
64501;DHT22;50874;24.150;-110.320;2024-01-10T07:59:46;13.20;99.90
64501;DHT22;50874;24.150;-110.320;2024-01-10T08:02:13;13.20;99.90
64501;DHT22;50874;24.150;-110.320;2024-01-10T08:04:40;13.10;99.90
64501;DHT22;50874;24.150;-110.320;2024-01-10T08:07:06;13.10;99.90
64501;DHT22;50874;24.150;-110.320;2024-01-10T08:09:34;13.10;99.90
64501;DHT22;50874;24.150;-110.320;2024-01-10T08:12:00;13.10;99.90
64501;DHT22;50874;24.150;-110.320;2024-01-10T08:14:26;13.00;99.90
64501;DHT22;50874;24.150;-110.320;2024-01-10T08:16:53;13.00;99.90
64501;DHT22;50874;24.150;-110.320;2024-01-10T08:19:20;13.00;99.90
64501;DHT22;50874;24.150;-110.320;2024-01-10T08:21:47;12.90;99.90
64501;DHT22;50874;24.150;-110.320;2024-01-10T08:24:13;12.90;99.90
64501;DHT22;50874;24.150;-110.320;2024-01-10T08:26:40;12.90;99.90
64501;DHT22;50874;24.150;-110.320;2024-01-10T08:29:06;12.90;99.90
64501;DHT22;50874;24.150;-110.320;2024-01-10T08:31:33;12.80;99.90
64501;DHT22;50874;24.150;-110.320;2024-01-10T08:33:59;12.80;99.90
64501;DHT22;50874;24.150;-110.320;2024-01-10T08:36:25;12.90;99.90
64501;DHT22;50874;24.150;-110.320;2024-01-10T08:38:52;12.90;99.90
64501;DHT22;50874;24.150;-110.320;2024-01-10T08:41:19;12.90;99.90
64501;DHT22;50874;24.150;-110.320;2024-01-10T08:43:47;12.90;99.90
64501;DHT22;50874;24.150;-110.320;2024-01-10T08:46:13;12.90;99.90
64501;DHT22;50874;24.150;-110.320;2024-01-10T08:48:40;12.90;99.90
64501;DHT22;50874;24.150;-110.320;2024-01-10T08:51:06;12.90;99.90
64501;DHT22;50874;24.150;-110.320;2024-01-10T08:53:35;12.90;99.90
64501;DHT22;50874;24.150;-110.320;2024-01-10T08:56:02;12.90;99.90
64501;DHT22;50874;24.150;-110.320;2024-01-10T08:58:28;12.90;99.90
64501;DHT22;50874;24.150;-110.320;2024-01-10T09:00:54;12.90;99.90
64501;DHT22;50874;24.150;-110.320;2024-01-10T09:03:21;12.90;99.90
64501;DHT22;50874;24.150;-110.320;2024-01-10T09:05:47;13.00;99.90
64501;DHT22;50874;24.150;-110.320;2024-01-10T09:08:14;12.90;99.90
64501;DHT22;50874;24.150;-110.320;2024-01-10T09:10:41;12.90;99.90
64501;DHT22;50874;24.150;-110.320;2024-01-10T09:13:08;12.90;99.90
64501;DHT22;50874;24.150;-110.320;2024-01-10T09:15:35;12.90;99.90
64501;DHT22;50874;24.150;-110.320;2024-01-10T09:18:01;12.90;99.90
64501;DHT22;50874;24.150;-110.320;2024-01-10T09:20:28;12.90;99.90
64501;DHT22;50874;24.150;-110.320;2024-01-10T09:22:55;12.90;99.90
64501;DHT22;50874;24.150;-110.320;2024-01-10T09:25:21;12.90;99.90
64501;DHT22;50874;24.150;-110.320;2024-01-10T09:27:47;12.90;99.90
64501;DHT22;50874;24.150;-110.320;2024-01-10T09:30:14;12.80;99.90
64501;DHT22;50874;24.150;-110.320;2024-01-10T09:32:42;12.80;99.90
64501;DHT22;50874;24.150;-110.320;2024-01-10T09:35:09;12.80;99.90
64501;DHT22;50874;24.150;-110.320;2024-01-10T09:37:35;12.80;99.90
64501;DHT22;50874;24.150;-110.320;2024-01-10T09:40:03;12.80;99.90
64501;DHT22;50874;24.150;-110.320;2024-01-10T09:42:30;12.80;99.90
64501;DHT22;50874;24.150;-110.320;2024-01-10T09:44:58;12.80;99.90
64501;DHT22;50874;24.150;-110.320;2024-01-10T09:47:26;12.90;99.90
64501;DHT22;50874;24.150;-110.320;2024-01-10T09:49:53;12.90;99.90
64501;DHT22;50874;24.150;-110.320;2024-01-10T09:52:25;12.90;99.90
64501;DHT22;50874;24.150;-110.320;2024-01-10T09:54:55;12.90;99.90
64501;DHT22;50874;24.150;-110.320;2024-01-10T09:57:25;12.90;99.90
64501;DHT22;50874;24.150;-110.320;2024-01-10T09:59:52;12.90;99.90
64501;DHT22;50874;24.150;-110.320;2024-01-10T10:02:20;13.00;99.90
64501;DHT22;50874;24.150;-110.320;2024-01-10T10:05:08;13.00;99.90
64501;DHT22;50874;24.150;-110.320;2024-01-10T10:07:45;13.00;99.90
64501;DHT22;50874;24.150;-110.320;2024-01-10T10:10:12;12.90;99.90
64501;DHT22;50874;24.150;-110.320;2024-01-10T10:12:49;12.90;99.90
64501;DHT22;50874;24.150;-110.320;2024-01-10T10:15:17;13.00;99.90
64501;DHT22;50874;24.150;-110.320;2024-01-10T10:17:46;12.90;99.90
64501;DHT22;50874;24.150;-110.320;2024-01-10T10:20:19;12.90;99.90
64501;DHT22;50874;24.150;-110.320;2024-01-10T10:23:00;12.90;99.90
64501;DHT22;50874;24.150;-110.320;2024-01-10T10:25:46;12.90;99.90
64501;DHT22;50874;24.150;-110.320;2024-01-10T10:28:15;12.80;99.90
64501;DHT22;50874;24.150;-110.320;2024-01-10T10:30:41;12.80;99.90
64501;DHT22;50874;24.150;-110.320;2024-01-10T10:33:09;12.80;99.90
64501;DHT22;50874;24.150;-110.320;2024-01-10T10:35:35;12.70;99.90
64501;DHT22;50874;24.150;-110.320;2024-01-10T10:38:01;12.70;99.90
64501;DHT22;50874;24.150;-110.320;2024-01-10T10:40:28;12.70;99.90
64501;DHT22;50874;24.150;-110.320;2024-01-10T10:42:57;12.60;99.90
64501;DHT22;50874;24.150;-110.320;2024-01-10T10:45:26;12.60;99.90
64501;DHT22;50874;24.150;-110.320;2024-01-10T10:48:00;12.50;99.90
64501;DHT22;50874;24.150;-110.320;2024-01-10T10:50:33;12.50;99.90
64501;DHT22;50874;24.150;-110.320;2024-01-10T10:53:02;12.40;99.90
64501;DHT22;50874;24.150;-110.320;2024-01-10T10:55:29;12.40;99.90
64501;DHT22;50874;24.150;-110.320;2024-01-10T10:57:57;12.30;99.90
64501;DHT22;50874;24.150;-110.320;2024-01-10T11:00:24;12.30;99.90
64501;DHT22;50874;24.150;-110.320;2024-01-10T11:02:56;12.20;99.90
64501;DHT22;50874;24.150;-110.320;2024-01-10T11:05:26;12.20;99.90
64501;DHT22;50874;24.150;-110.320;2024-01-10T11:07:53;12.20;99.90
64501;DHT22;50874;24.150;-110.320;2024-01-10T11:10:39;12.20;99.90
64501;DHT22;50874;24.150;-110.320;2024-01-10T11:13:25;12.20;99.90
64501;DHT22;50874;24.150;-110.320;2024-01-10T11:19:11;12.00;99.90
64501;DHT22;50874;24.150;-110.320;2024-01-10T11:22:09;11.90;99.90
64501;DHT22;50874;24.150;-110.320;2024-01-10T11:24:37;11.90;99.90
64501;DHT22;50874;24.150;-110.320;2024-01-10T11:29:37;11.80;99.90
64501;DHT22;50874;24.150;-110.320;2024-01-10T11:32:15;11.80;99.90
64501;DHT22;50874;24.150;-110.320;2024-01-10T11:34:54;11.90;99.90
64501;DHT22;50874;24.150;-110.320;2024-01-10T11:37:22;11.80;99.90
64501;DHT22;50874;24.150;-110.320;2024-01-10T11:39:51;11.80;99.90
64501;DHT22;50874;24.150;-110.320;2024-01-10T11:42:40;11.80;99.90
64501;DHT22;50874;24.150;-110.320;2024-01-10T11:45:07;11.80;99.90
64501;DHT22;50874;24.150;-110.320;2024-01-10T11:47:34;11.80;99.90
64501;DHT22;50874;24.150;-110.320;2024-01-10T11:50:02;11.80;99.90
64501;DHT22;50874;24.150;-110.320;2024-01-10T11:52:34;11.80;99.90
64501;DHT22;50874;24.150;-110.320;2024-01-10T11:55:01;11.80;99.90
64501;DHT22;50874;24.150;-110.320;2024-01-10T11:57:29;11.80;99.90
64501;DHT22;50874;24.150;-110.320;2024-01-10T11:59:58;11.80;99.90
64501;DHT22;50874;24.150;-110.320;2024-01-10T12:02:29;11.80;99.90
64501;DHT22;50874;24.150;-110.320;2024-01-10T12:04:56;11.90;99.90
64501;DHT22;50874;24.150;-110.320;2024-01-10T12:07:22;11.90;99.90
64501;DHT22;50874;24.150;-110.320;2024-01-10T12:09:50;11.90;99.90
64501;DHT22;50874;24.150;-110.320;2024-01-10T12:12:17;11.90;99.90
64501;DHT22;50874;24.150;-110.320;2024-01-10T12:14:44;11.90;99.90
64501;DHT22;50874;24.150;-110.320;2024-01-10T12:17:10;11.90;99.90
64501;DHT22;50874;24.150;-110.320;2024-01-10T12:19:37;11.90;99.90
64501;DHT22;50874;24.150;-110.320;2024-01-10T12:22:07;11.80;99.90
64501;DHT22;50874;24.150;-110.320;2024-01-10T12:24:33;11.80;99.90
64501;DHT22;50874;24.150;-110.320;2024-01-10T12:27:00;11.80;99.90
64501;DHT22;50874;24.150;-110.320;2024-01-10T12:29:27;11.70;99.90
64501;DHT22;50874;24.150;-110.320;2024-01-10T12:31:53;11.60;99.90
64501;DHT22;50874;24.150;-110.320;2024-01-10T12:34:20;11.50;99.90
64501;DHT22;50874;24.150;-110.320;2024-01-10T12:36:53;11.30;99.90
64501;DHT22;50874;24.150;-110.320;2024-01-10T12:39:20;11.30;99.90
64501;DHT22;50874;24.150;-110.320;2024-01-10T12:41:50;11.20;99.90
64501;DHT22;50874;24.150;-110.320;2024-01-10T12:44:16;11.10;99.90
64501;DHT22;50874;24.150;-110.320;2024-01-10T12:46:52;11.10;99.90
64501;DHT22;50874;24.150;-110.320;2024-01-10T12:49:19;11.00;99.90
64501;DHT22;50874;24.150;-110.320;2024-01-10T12:51:47;11.00;99.90
64501;DHT22;50874;24.150;-110.320;2024-01-10T12:54:15;11.00;99.90
64501;DHT22;50874;24.150;-110.320;2024-01-10T12:56:43;11.00;99.90
64501;DHT22;50874;24.150;-110.320;2024-01-10T12:59:09;11.00;99.90
64501;DHT22;50874;24.150;-110.320;2024-01-10T13:01:36;11.00;99.90
64501;DHT22;50874;24.150;-110.320;2024-01-10T13:04:04;11.00;99.90
64501;DHT22;50874;24.150;-110.320;2024-01-10T13:06:30;11.00;99.90
64501;DHT22;50874;24.150;-110.320;2024-01-10T13:08:57;11.00;99.90
64501;DHT22;50874;24.150;-110.320;2024-01-10T13:11:24;10.90;99.90
64501;DHT22;50874;24.150;-110.320;2024-01-10T13:13:51;10.90;99.90
64501;DHT22;50874;24.150;-110.320;2024-01-10T13:16:17;10.90;99.90
64501;DHT22;50874;24.150;-110.320;2024-01-10T13:18:43;10.90;99.90
64501;DHT22;50874;24.150;-110.320;2024-01-10T13:21:10;10.80;99.90
64501;DHT22;50874;24.150;-110.320;2024-01-10T13:23:36;10.80;99.90
64501;DHT22;50874;24.150;-110.320;2024-01-10T13:26:03;10.80;99.90
64501;DHT22;50874;24.150;-110.320;2024-01-10T13:28:29;10.80;99.90
64501;DHT22;50874;24.150;-110.320;2024-01-10T13:30:56;10.80;99.90
64501;DHT22;50874;24.150;-110.320;2024-01-10T13:33:23;10.80;99.90
64501;DHT22;50874;24.150;-110.320;2024-01-10T13:35:51;10.80;99.90
64501;DHT22;50874;24.150;-110.320;2024-01-10T13:38:17;10.70;99.90
64501;DHT22;50874;24.150;-110.320;2024-01-10T13:40:44;10.60;99.90
64501;DHT22;50874;24.150;-110.320;2024-01-10T13:43:10;10.60;99.90
64501;DHT22;50874;24.150;-110.320;2024-01-10T13:45:37;10.50;99.90
64501;DHT22;50874;24.150;-110.320;2024-01-10T13:48:05;10.50;99.90
64501;DHT22;50874;24.150;-110.320;2024-01-10T13:50:31;10.60;99.90
64501;DHT22;50874;24.150;-110.320;2024-01-10T13:52:58;10.50;99.90
64501;DHT22;50874;24.150;-110.320;2024-01-10T13:55:25;10.50;99.90
64501;DHT22;50874;24.150;-110.320;2024-01-10T13:57:51;10.50;99.90
64501;DHT22;50874;24.150;-110.320;2024-01-10T14:00:20;10.50;99.90
64501;DHT22;50874;24.150;-110.320;2024-01-10T14:02:47;10.50;99.90
64501;DHT22;50874;24.150;-110.320;2024-01-10T14:05:13;10.50;99.90
64501;DHT22;50874;24.150;-110.320;2024-01-10T14:07:40;10.50;99.90
64501;DHT22;50874;24.150;-110.320;2024-01-10T14:10:10;10.50;99.90
64501;DHT22;50874;24.150;-110.320;2024-01-10T14:12:37;10.50;99.90
64501;DHT22;50874;24.150;-110.320;2024-01-10T14:15:04;10.50;99.90
64501;DHT22;50874;24.150;-110.320;2024-01-10T14:17:31;10.50;99.90
64501;DHT22;50874;24.150;-110.320;2024-01-10T14:19:57;10.40;99.90
64501;DHT22;50874;24.150;-110.320;2024-01-10T14:22:24;10.40;99.90
64501;DHT22;50874;24.150;-110.320;2024-01-10T14:24:51;10.30;99.90
64501;DHT22;50874;24.150;-110.320;2024-01-10T14:27:20;10.30;99.90
64501;DHT22;50874;24.150;-110.320;2024-01-10T14:29:47;10.30;99.90
64501;DHT22;50874;24.150;-110.320;2024-01-10T14:32:14;10.40;99.90
64501;DHT22;50874;24.150;-110.320;2024-01-10T14:34:41;10.40;99.90
64501;DHT22;50874;24.150;-110.320;2024-01-10T14:37:08;10.40;99.90
64501;DHT22;50874;24.150;-110.320;2024-01-10T14:39:35;10.40;99.90
64501;DHT22;50874;24.150;-110.320;2024-01-10T14:42:06;10.50;99.90
64501;DHT22;50874;24.150;-110.320;2024-01-10T14:44:33;10.50;99.90
64501;DHT22;50874;24.150;-110.320;2024-01-10T14:47:00;10.60;99.90
64501;DHT22;50874;24.150;-110.320;2024-01-10T14:49:27;10.70;99.90
64501;DHT22;50874;24.150;-110.320;2024-01-10T14:51:53;10.80;99.90
64501;DHT22;50874;24.150;-110.320;2024-01-10T14:54:19;10.80;99.90
64501;DHT22;50874;24.150;-110.320;2024-01-10T14:56:47;10.90;99.90